createdAt,value
2018-06-09T00:00:48.498Z,20.30
2018-06-09T00:03:17.173Z,20.30
2018-06-09T00:05:45.813Z,20.20
2018-06-09T00:08:15.329Z,20.20
2018-06-09T00:10:43.970Z,20.20
2018-06-09T00:13:12.762Z,20.10
2018-06-09T00:15:41.381Z,20.10
2018-06-09T00:18:09.990Z,20.10
2018-06-09T00:20:38.634Z,20.10
2018-06-09T00:23:07.281Z,20.00
2018-06-09T00:25:35.957Z,20.00
2018-06-09T00:28:04.592Z,20.00
2018-06-09T00:30:33.209Z,19.90
2018-06-09T00:33:01.801Z,19.90
2018-06-09T00:35:30.460Z,19.90
2018-06-09T00:37:59.390Z,19.90
2018-06-09T00:40:28.023Z,19.80
2018-06-09T00:42:56.620Z,19.90
2018-06-09T00:45:25.218Z,19.80
2018-06-09T00:47:53.815Z,19.80
2018-06-09T00:50:22.417Z,19.80
2018-06-09T00:52:51.055Z,19.80
2018-06-09T00:55:19.666Z,19.70
2018-06-09T00:57:48.294Z,19.70
2018-06-09T01:00:16.894Z,19.70
2018-06-09T01:02:45.561Z,19.60
2018-06-09T01:05:14.198Z,19.50
2018-06-09T01:07:42.795Z,19.50
2018-06-09T01:10:12.109Z,19.50
2018-06-09T01:12:40.702Z,19.50
2018-06-09T01:15:09.362Z,19.50
2018-06-09T01:17:37.971Z,19.40
2018-06-09T01:20:06.569Z,19.50
2018-06-09T01:22:35.199Z,19.50
2018-06-09T01:25:03.857Z,19.50
2018-06-09T01:27:32.510Z,19.50
2018-06-09T01:30:01.100Z,19.50
2018-06-09T01:32:29.688Z,19.40
2018-06-09T01:34:58.304Z,19.40
2018-06-09T01:37:26.904Z,19.40
2018-06-09T01:39:55.524Z,19.30
2018-06-09T01:42:24.126Z,19.20
2018-06-09T01:44:52.745Z,19.20
2018-06-09T01:47:21.347Z,19.20
2018-06-09T01:49:49.952Z,19.20
2018-06-09T01:52:21.317Z,19.20
2018-06-09T01:54:50.107Z,19.20
2018-06-09T01:57:18.745Z,19.20
2018-06-09T01:59:47.366Z,19.20
2018-06-09T02:02:16.026Z,19.20
2018-06-09T02:04:44.618Z,19.10
2018-06-09T02:07:13.244Z,19.10
2018-06-09T02:09:41.969Z,19.10
2018-06-09T02:12:10.598Z,19.00
2018-06-09T02:14:39.188Z,19.00
2018-06-09T02:17:07.798Z,19.00
2018-06-09T02:19:36.451Z,18.90
2018-06-09T02:22:05.125Z,18.90
2018-06-09T02:24:33.757Z,18.80
2018-06-09T02:27:02.384Z,18.80
2018-06-09T02:29:31.009Z,18.80
2018-06-09T02:31:59.674Z,18.70
2018-06-09T02:34:28.606Z,18.70
2018-06-09T02:36:57.239Z,18.70
2018-06-09T02:39:25.858Z,18.60
2018-06-09T02:41:54.523Z,18.60
2018-06-09T02:44:23.163Z,18.60
2018-06-09T02:46:51.858Z,18.60
2018-06-09T02:49:20.514Z,18.60
2018-06-09T02:51:49.123Z,18.50
2018-06-09T02:54:17.778Z,18.50
2018-06-09T02:56:46.365Z,18.50
2018-06-09T02:59:14.996Z,18.50
2018-06-09T03:01:43.584Z,18.50
2018-06-09T03:04:12.257Z,18.50
2018-06-09T03:06:40.877Z,18.50
2018-06-09T03:09:09.513Z,18.50
2018-06-09T03:11:38.142Z,18.50
2018-06-09T03:14:06.778Z,18.40
2018-06-09T03:16:35.438Z,18.40
2018-06-09T03:19:04.100Z,18.40
2018-06-09T03:21:32.673Z,18.40
2018-06-09T03:24:01.285Z,18.40
2018-06-09T03:26:29.922Z,18.40
2018-06-09T03:28:58.577Z,18.40
2018-06-09T03:31:27.173Z,18.40
2018-06-09T03:33:55.785Z,18.40
2018-06-09T03:36:24.408Z,18.40
2018-06-09T03:38:53.021Z,18.30
2018-06-09T03:41:21.651Z,18.30
2018-06-09T03:43:50.252Z,18.20
2018-06-09T03:46:18.890Z,18.20
2018-06-09T03:48:47.515Z,18.20
2018-06-09T03:51:16.200Z,18.20
2018-06-09T03:53:44.857Z,18.20
2018-06-09T03:56:13.502Z,18.20
2018-06-09T03:58:42.165Z,18.20
2018-06-09T04:01:10.786Z,18.20
2018-06-09T04:03:39.420Z,18.20
2018-06-09T04:06:08.024Z,18.10
2018-06-09T04:08:36.645Z,18.10
2018-06-09T04:11:05.280Z,18.10
2018-06-09T04:13:33.894Z,18.10
2018-06-09T04:16:02.527Z,18.10
2018-06-09T04:18:31.139Z,18.00
2018-06-09T04:20:59.831Z,18.00
2018-06-09T04:23:28.492Z,18.00
2018-06-09T04:25:57.121Z,18.00
2018-06-09T04:28:25.885Z,17.90
2018-06-09T04:30:54.486Z,17.90
2018-06-09T04:33:23.092Z,17.90
2018-06-09T04:35:51.701Z,18.00
2018-06-09T04:38:20.433Z,18.00
2018-06-09T04:40:49.069Z,18.00
2018-06-09T04:43:17.837Z,18.00
2018-06-09T04:45:46.440Z,18.00
2018-06-09T04:48:15.513Z,18.00
2018-06-09T04:50:44.167Z,18.00
2018-06-09T04:53:12.844Z,18.00
2018-06-09T04:55:41.558Z,18.00
2018-06-09T04:58:10.496Z,17.90
2018-06-09T05:00:39.118Z,17.80
2018-06-09T05:03:07.795Z,17.80
2018-06-09T05:05:36.411Z,17.80
2018-06-09T05:08:05.099Z,17.70
2018-06-09T05:10:33.754Z,17.80
2018-06-09T05:13:02.418Z,17.80
2018-06-09T05:15:31.058Z,17.80
2018-06-09T05:17:59.729Z,17.90
2018-06-09T05:20:28.349Z,17.80
2018-06-09T05:22:56.933Z,17.90
2018-06-09T05:25:25.590Z,17.90
2018-06-09T05:27:54.241Z,18.00
2018-06-09T05:30:22.868Z,18.10
2018-06-09T05:32:51.526Z,18.10
2018-06-09T05:35:20.176Z,18.10
2018-06-09T05:37:48.781Z,18.10
2018-06-09T05:40:17.435Z,18.20
2018-06-09T05:42:46.049Z,18.20
2018-06-09T05:45:14.709Z,18.20
2018-06-09T05:47:43.293Z,18.30
2018-06-09T05:50:11.934Z,18.30
2018-06-09T05:52:40.554Z,18.30
2018-06-09T05:55:09.321Z,18.30
2018-06-09T05:57:37.961Z,18.20
2018-06-09T06:00:06.993Z,18.10
2018-06-09T06:02:35.598Z,18.00
2018-06-09T06:05:04.331Z,18.00
2018-06-09T06:07:33.193Z,18.00
2018-06-09T06:10:01.811Z,18.10
2018-06-09T06:12:30.430Z,18.20
2018-06-09T06:14:59.015Z,18.20
2018-06-09T06:17:27.629Z,18.30
2018-06-09T06:19:56.245Z,18.30
2018-06-09T06:22:24.841Z,18.40
2018-06-09T06:24:53.482Z,18.40
2018-06-09T06:27:22.108Z,18.40
2018-06-09T06:29:50.721Z,18.50
2018-06-09T06:32:19.327Z,18.60
2018-06-09T06:34:47.925Z,18.60
2018-06-09T06:37:16.582Z,18.70
2018-06-09T06:39:45.227Z,18.80
2018-06-09T06:42:13.870Z,18.80
2018-06-09T06:44:42.491Z,18.90
2018-06-09T06:47:11.173Z,18.90
2018-06-09T06:49:39.888Z,19.00
2018-06-09T06:52:08.481Z,19.00
2018-06-09T06:54:37.282Z,19.10
2018-06-09T06:57:05.900Z,19.10
2018-06-09T06:59:34.533Z,19.00
2018-06-09T07:02:03.213Z,19.00
2018-06-09T07:04:31.784Z,19.00
2018-06-09T07:07:00.429Z,19.10
2018-06-09T07:09:29.068Z,19.20
2018-06-09T07:11:57.686Z,19.40
2018-06-09T07:14:26.338Z,19.50
2018-06-09T07:16:54.929Z,19.60
2018-06-09T07:19:23.589Z,19.50
2018-06-09T07:21:52.349Z,19.60
2018-06-09T07:24:20.981Z,19.70
2018-06-09T07:26:49.608Z,19.70
2018-06-09T07:29:18.238Z,19.60
2018-06-09T07:31:46.840Z,19.60
2018-06-09T07:34:15.456Z,19.70
2018-06-09T07:36:44.081Z,19.80
2018-06-09T07:39:12.679Z,19.80
2018-06-09T07:41:41.280Z,19.80
2018-06-09T07:44:09.896Z,19.80
2018-06-09T07:46:38.496Z,20.00
2018-06-09T07:49:07.101Z,20.10
2018-06-09T07:51:35.688Z,20.20
2018-06-09T07:54:04.340Z,20.40
2018-06-09T07:56:33.166Z,20.50
2018-06-09T07:59:01.760Z,20.70
2018-06-09T08:01:30.398Z,20.80
2018-06-09T08:03:59.020Z,21.00
2018-06-09T08:06:27.705Z,21.20
2018-06-09T08:08:56.303Z,21.40
2018-06-09T08:11:24.930Z,21.50
2018-06-09T08:13:53.588Z,21.70
2018-06-09T08:16:22.233Z,21.90
2018-06-09T08:18:50.872Z,22.00
2018-06-09T08:21:19.509Z,22.20
2018-06-09T08:23:48.129Z,22.10
2018-06-09T08:26:16.770Z,21.80
2018-06-09T08:28:45.371Z,21.80
2018-06-09T08:31:14.113Z,21.90
2018-06-09T08:33:42.740Z,22.20
2018-06-09T08:36:11.366Z,22.50
2018-06-09T08:38:40.107Z,22.50
2018-06-09T08:41:08.755Z,22.80
2018-06-09T08:43:37.452Z,23.10
2018-06-09T08:46:06.223Z,23.30
2018-06-09T08:48:34.901Z,23.50
2018-06-09T08:51:03.529Z,23.40
2018-06-09T08:53:32.144Z,23.00
2018-06-09T08:56:00.847Z,23.10
2018-06-09T08:58:29.500Z,22.90
2018-06-09T09:00:58.132Z,22.90
2018-06-09T09:03:26.855Z,23.10
2018-06-09T09:05:55.445Z,23.30
2018-06-09T09:08:24.078Z,23.30
2018-06-09T09:10:52.701Z,23.40
2018-06-09T09:13:21.285Z,23.40
2018-06-09T09:15:49.997Z,23.50
2018-06-09T09:18:18.613Z,23.90
2018-06-09T09:20:47.209Z,24.20
2018-06-09T09:23:15.827Z,24.40
2018-06-09T09:25:44.551Z,24.30
2018-06-09T09:28:13.268Z,24.10
2018-06-09T09:30:41.899Z,24.00
2018-06-09T09:33:10.590Z,24.20
2018-06-09T09:35:39.351Z,23.90
2018-06-09T09:38:08.057Z,23.70
2018-06-09T09:40:36.744Z,23.70
2018-06-09T09:43:05.467Z,23.80
2018-06-09T09:45:34.205Z,24.00
2018-06-09T09:48:02.896Z,24.20
2018-06-09T09:50:31.652Z,24.60
2018-06-09T09:53:00.321Z,24.80
2018-06-09T09:55:29.209Z,25.00
2018-06-09T09:57:59.123Z,25.10
2018-06-09T10:00:33.054Z,25.20
2018-06-09T10:03:01.784Z,25.30
2018-06-09T10:05:30.563Z,25.40
2018-06-09T10:07:59.264Z,25.50
2018-06-09T10:10:28.154Z,25.70
2018-06-09T10:13:01.820Z,25.30
2018-06-09T10:15:30.568Z,25.20
2018-06-09T10:18:00.185Z,25.20
2018-06-09T10:20:28.941Z,25.50
2018-06-09T10:22:57.606Z,25.60
2018-06-09T10:25:26.280Z,25.70
2018-06-09T10:27:54.976Z,25.70
2018-06-09T10:30:23.661Z,25.80
2018-06-09T10:32:52.372Z,25.90
2018-06-09T10:35:21.044Z,25.90
2018-06-09T10:37:49.762Z,26.00
2018-06-09T10:40:18.518Z,26.20
2018-06-09T10:42:47.193Z,26.10
2018-06-09T10:45:15.910Z,25.50
2018-06-09T10:47:44.622Z,25.50
2018-06-09T10:50:13.344Z,25.60
2018-06-09T10:52:42.008Z,25.70
2018-06-09T10:55:10.728Z,26.00
2018-06-09T10:57:39.397Z,26.10
2018-06-09T11:00:08.071Z,26.40
2018-06-09T11:02:36.748Z,26.70
2018-06-09T11:05:05.466Z,26.90
2018-06-09T11:07:34.151Z,27.10
2018-06-09T11:10:02.829Z,27.30
2018-06-09T11:12:31.602Z,27.40
2018-06-09T11:15:00.303Z,27.50
2018-06-09T11:17:28.987Z,27.30
2018-06-09T11:19:57.638Z,26.90
2018-06-09T11:22:26.291Z,26.50
2018-06-09T11:24:54.952Z,26.60
2018-06-09T11:27:23.560Z,26.70
2018-06-09T11:29:52.185Z,27.20
2018-06-09T11:32:20.891Z,27.70
2018-06-09T11:34:49.616Z,28.10
2018-06-09T11:37:18.690Z,28.20
2018-06-09T11:39:48.330Z,28.60
2018-06-09T11:42:17.025Z,28.80
2018-06-09T11:44:45.729Z,28.90
2018-06-09T11:47:14.451Z,29.00
2018-06-09T11:49:43.168Z,28.80
2018-06-09T11:52:11.885Z,29.10
2018-06-09T11:54:40.557Z,29.50
2018-06-09T11:57:09.378Z,29.70
2018-06-09T11:59:38.845Z,30.00
2018-06-09T12:02:07.513Z,30.20
2018-06-09T12:04:36.241Z,30.30
2018-06-09T12:07:04.915Z,30.30
2018-06-09T12:09:33.565Z,30.50
2018-06-09T12:12:02.321Z,30.40
2018-06-09T12:14:31.132Z,29.70
2018-06-09T12:16:59.812Z,29.80
2018-06-09T12:19:28.453Z,30.10
2018-06-09T12:21:57.156Z,30.50
2018-06-09T12:24:25.831Z,30.90
2018-06-09T12:26:54.503Z,30.80
2018-06-09T12:29:23.147Z,30.90
2018-06-09T12:31:51.876Z,30.80
2018-06-09T12:34:20.565Z,30.20
2018-06-09T12:36:49.258Z,30.50
2018-06-09T12:39:17.962Z,30.90
2018-06-09T12:41:46.615Z,31.20
2018-06-09T12:44:15.285Z,31.10
2018-06-09T12:46:44.090Z,31.10
2018-06-09T12:49:12.909Z,31.10
2018-06-09T12:51:41.553Z,31.30
2018-06-09T12:54:10.189Z,30.60
2018-06-09T12:56:38.857Z,31.00
2018-06-09T12:59:07.533Z,31.00
2018-06-09T13:01:36.242Z,31.50
2018-06-09T13:04:04.965Z,31.50
2018-06-09T13:06:33.631Z,31.70
2018-06-09T13:09:02.273Z,32.00
2018-06-09T13:11:30.878Z,32.30
2018-06-09T13:13:59.537Z,32.60
2018-06-09T13:16:28.222Z,32.70
2018-06-09T13:18:56.882Z,32.90
2018-06-09T13:21:25.590Z,32.80
2018-06-09T13:23:54.281Z,32.80
2018-06-09T13:26:22.931Z,32.80
2018-06-09T13:28:51.612Z,33.00
2018-06-09T13:31:20.336Z,33.20
2018-06-09T13:33:49.030Z,33.40
2018-06-09T13:36:17.704Z,33.50
2018-06-09T13:38:46.421Z,33.50
2018-06-09T13:41:15.170Z,33.60
2018-06-09T13:43:43.895Z,33.70
2018-06-09T13:46:12.782Z,33.80
2018-06-09T13:48:41.480Z,33.90
2018-06-09T13:51:10.147Z,34.00
2018-06-09T13:53:38.868Z,33.90
2018-06-09T13:56:07.690Z,33.80
2018-06-09T13:58:36.353Z,33.80
2018-06-09T14:01:05.098Z,33.70
2018-06-09T14:03:33.745Z,33.70
2018-06-09T14:06:02.413Z,33.70
2018-06-09T14:08:31.038Z,33.60
2018-06-09T14:10:59.695Z,33.40
2018-06-09T14:13:28.358Z,33.50
2018-06-09T14:15:56.949Z,33.60
2018-06-09T14:18:25.626Z,33.40
2018-06-09T14:20:54.275Z,33.40
2018-06-09T14:23:22.988Z,32.50
2018-06-09T14:25:51.623Z,32.60
2018-06-09T14:28:20.281Z,32.80
2018-06-09T14:30:48.921Z,32.70
2018-06-09T14:33:17.621Z,32.20
2018-06-09T14:35:46.273Z,32.50
2018-06-09T14:38:15.732Z,32.80
2018-06-09T14:40:44.371Z,33.10
2018-06-09T14:43:13.034Z,33.40
2018-06-09T14:45:41.684Z,33.60
2018-06-09T14:48:10.365Z,33.60
2018-06-09T14:50:38.971Z,33.70
2018-06-09T14:53:07.576Z,33.90
2018-06-09T14:55:36.222Z,34.00
2018-06-09T14:58:04.993Z,34.00
2018-06-09T15:00:33.683Z,33.80
2018-06-09T15:03:02.307Z,33.80
2018-06-09T15:05:30.949Z,33.60
2018-06-09T15:07:59.671Z,33.00
2018-06-09T15:10:28.306Z,33.00
2018-06-09T15:12:56.933Z,33.10
2018-06-09T15:15:25.535Z,33.00
2018-06-09T15:17:54.247Z,33.20
2018-06-09T15:20:22.852Z,33.30
2018-06-09T15:22:51.509Z,33.20
2018-06-09T15:25:20.164Z,33.30
2018-06-09T15:27:48.790Z,33.30
2018-06-09T15:30:17.436Z,33.20
2018-06-09T15:32:46.086Z,33.00
2018-06-09T15:35:14.686Z,32.80
2018-06-09T15:37:43.361Z,32.10
2018-06-09T15:40:11.973Z,31.80
2018-06-09T15:42:40.659Z,31.90
2018-06-09T15:45:09.259Z,32.10
2018-06-09T15:47:37.891Z,32.20
2018-06-09T15:50:06.657Z,32.10
2018-06-09T15:52:35.273Z,31.50
2018-06-09T15:55:03.968Z,30.90
2018-06-09T15:57:32.659Z,31.10
2018-06-09T16:00:01.274Z,31.30
2018-06-09T16:02:29.937Z,31.40
2018-06-09T16:04:58.565Z,31.40
2018-06-09T16:07:27.205Z,31.50
2018-06-09T16:09:55.905Z,31.50
2018-06-09T16:12:24.556Z,31.60
2018-06-09T16:14:53.244Z,31.70
2018-06-09T16:17:21.908Z,31.50
2018-06-09T16:19:50.614Z,31.10
2018-06-09T16:22:19.212Z,30.70
2018-06-09T16:24:47.852Z,30.80
2018-06-09T16:27:16.477Z,30.80
2018-06-09T16:29:45.177Z,30.90
2018-06-09T16:32:13.885Z,30.60
2018-06-09T16:34:42.576Z,30.70
2018-06-09T16:37:11.333Z,30.60
2018-06-09T16:39:39.995Z,30.50
2018-06-09T16:42:08.637Z,30.30
2018-06-09T16:44:37.311Z,30.30
2018-06-09T16:47:05.927Z,30.30
2018-06-09T16:49:34.609Z,30.40
2018-06-09T16:52:03.269Z,30.30
2018-06-09T16:54:32.018Z,30.20
2018-06-09T16:57:00.722Z,30.10
2018-06-09T16:59:29.332Z,30.00
2018-06-09T17:01:57.993Z,30.00
2018-06-09T17:04:26.664Z,30.00
2018-06-09T17:06:55.309Z,29.80
2018-06-09T17:09:23.899Z,29.70
2018-06-09T17:11:52.544Z,29.70
2018-06-09T17:14:21.217Z,29.50
2018-06-09T17:16:49.870Z,29.30
2018-06-09T17:19:19.201Z,29.20
2018-06-09T17:21:49.297Z,28.90
2018-06-09T17:24:17.893Z,28.70
2018-06-09T17:26:46.563Z,28.60
2018-06-09T17:29:15.248Z,28.50
2018-06-09T17:31:43.849Z,28.20
2018-06-09T17:34:12.455Z,28.20
2018-06-09T17:36:41.108Z,28.10
2018-06-09T17:39:09.749Z,28.10
2018-06-09T17:41:38.380Z,28.10
2018-06-09T17:44:07.023Z,28.20
2018-06-09T17:46:35.704Z,28.20
2018-06-09T17:49:04.382Z,28.30
2018-06-09T17:51:33.057Z,28.30
2018-06-09T17:54:01.735Z,28.30
2018-06-09T17:56:30.325Z,28.30
2018-06-09T17:58:59.056Z,28.20
2018-06-09T18:01:27.726Z,28.10
2018-06-09T18:03:56.387Z,28.10
2018-06-09T18:06:25.357Z,28.00
2018-06-09T18:08:54.008Z,27.90
2018-06-09T18:11:22.673Z,27.80
2018-06-09T18:13:51.354Z,27.70
2018-06-09T18:16:19.956Z,27.60
2018-06-09T18:18:48.628Z,27.60
2018-06-09T18:21:17.245Z,27.60
2018-06-09T18:23:45.993Z,27.50
2018-06-09T18:26:14.642Z,27.50
2018-06-09T18:28:43.307Z,27.40
2018-06-09T18:31:11.986Z,27.40
2018-06-09T18:33:40.637Z,27.20
2018-06-09T18:36:09.317Z,27.20
2018-06-09T18:38:37.932Z,27.20
2018-06-09T18:41:06.612Z,27.20
2018-06-09T18:43:35.291Z,27.20
2018-06-09T18:46:03.902Z,27.10
2018-06-09T18:48:32.522Z,27.10
2018-06-09T18:51:01.214Z,27.00
2018-06-09T18:53:29.859Z,26.90
2018-06-09T18:55:58.483Z,26.90
2018-06-09T18:58:27.224Z,26.80
2018-06-09T19:00:55.902Z,26.80
2018-06-09T19:03:24.582Z,26.80
2018-06-09T19:05:53.268Z,26.70
2018-06-09T19:08:21.924Z,26.70
2018-06-09T19:10:50.576Z,26.60
2018-06-09T19:13:19.256Z,26.60
2018-06-09T19:15:47.934Z,26.50
2018-06-09T19:18:16.598Z,26.40
2018-06-09T19:20:45.244Z,26.30
2018-06-09T19:23:13.938Z,26.30
2018-06-09T19:25:42.574Z,26.20
2018-06-09T19:28:11.209Z,26.10
2018-06-09T19:30:39.849Z,26.10
2018-06-09T19:33:08.520Z,26.00
2018-06-09T19:35:37.166Z,26.00
2018-06-09T19:38:05.890Z,25.90
2018-06-09T19:40:34.577Z,25.80
2018-06-09T19:43:03.370Z,25.80
2018-06-09T19:45:32.037Z,25.70
2018-06-09T19:48:00.685Z,25.60
2018-06-09T19:50:29.316Z,25.60
2018-06-09T19:52:57.961Z,25.60
2018-06-09T19:55:26.602Z,25.50
2018-06-09T19:57:55.438Z,25.40
2018-06-09T20:00:24.254Z,25.30
2018-06-09T20:02:52.926Z,25.30
2018-06-09T20:05:21.584Z,25.20
2018-06-09T20:07:50.205Z,25.20
2018-06-09T20:10:18.910Z,25.10
2018-06-09T20:12:47.540Z,25.10
2018-06-09T20:15:16.175Z,25.00
2018-06-09T20:17:44.889Z,25.00
2018-06-09T20:20:13.554Z,24.90
2018-06-09T20:22:42.280Z,24.90
2018-06-09T20:25:10.962Z,24.80
2018-06-09T20:27:39.608Z,24.70
2018-06-09T20:30:08.287Z,24.60
2018-06-09T20:32:36.957Z,24.60
2018-06-09T20:35:05.707Z,24.60
2018-06-09T20:37:34.392Z,24.50
2018-06-09T20:40:03.039Z,24.40
2018-06-09T20:42:32.508Z,24.30
2018-06-09T20:45:01.236Z,24.30
2018-06-09T20:47:29.965Z,24.30
2018-06-09T20:49:58.682Z,24.20
2018-06-09T20:52:27.305Z,24.20
2018-06-09T20:54:56.089Z,24.20
2018-06-09T20:57:24.804Z,24.10
2018-06-09T20:59:53.517Z,24.10
2018-06-09T21:02:22.313Z,24.00
2018-06-09T21:04:50.947Z,24.00
2018-06-09T21:07:21.089Z,23.90
2018-06-09T21:09:51.326Z,23.80
2018-06-09T21:12:20.003Z,23.80
2018-06-09T21:14:49.077Z,23.80
2018-06-09T21:17:17.894Z,23.70
2018-06-09T21:19:46.852Z,23.60
2018-06-09T21:22:15.433Z,23.60
2018-06-09T21:24:44.104Z,23.50
2018-06-09T21:27:18.084Z,23.50
2018-06-09T21:29:50.660Z,23.40
2018-06-09T21:32:24.572Z,23.30
2018-06-09T21:35:05.197Z,23.30
2018-06-09T21:37:39.729Z,23.20
2018-06-09T21:40:14.578Z,23.20
2018-06-09T21:42:44.240Z,23.10
2018-06-09T21:45:17.636Z,23.10
2018-06-09T21:47:46.350Z,23.00
2018-06-09T21:50:14.968Z,23.00
2018-06-09T21:52:43.640Z,23.00
2018-06-09T21:55:12.274Z,22.90
2018-06-09T21:57:40.885Z,22.90
2018-06-09T22:00:09.657Z,22.80
2018-06-09T22:02:38.373Z,22.70
2018-06-09T22:05:07.114Z,22.70
2018-06-09T22:07:35.720Z,22.70
2018-06-09T22:10:04.375Z,22.60
2018-06-09T22:12:33.301Z,22.50
2018-06-09T22:15:02.019Z,22.50
2018-06-09T22:17:30.654Z,22.40
2018-06-09T22:19:59.297Z,22.40
2018-06-09T22:22:27.803Z,22.30
2018-06-09T22:24:56.333Z,22.40
2018-06-09T22:27:24.840Z,22.30
2018-06-09T22:29:53.335Z,22.30
2018-06-09T22:32:21.848Z,22.20
2018-06-09T22:34:50.357Z,22.20
2018-06-09T22:37:18.860Z,22.10
2018-06-09T22:39:47.393Z,22.10
2018-06-09T22:42:15.892Z,22.10
2018-06-09T22:44:44.377Z,22.00
2018-06-09T22:47:12.888Z,22.00
2018-06-09T22:49:42.308Z,21.90
2018-06-09T22:52:10.811Z,21.90
2018-06-09T22:54:39.373Z,21.70
2018-06-09T22:57:07.891Z,21.50
2018-06-09T22:59:36.390Z,21.50
2018-06-09T23:02:04.832Z,21.50
2018-06-09T23:04:33.363Z,21.50
2018-06-09T23:07:01.878Z,21.40
2018-06-09T23:09:30.511Z,21.40
2018-06-09T23:11:59.006Z,21.40
2018-06-09T23:14:27.520Z,21.50
2018-06-09T23:16:56.057Z,21.40
2018-06-09T23:19:24.539Z,21.40
2018-06-09T23:21:53.131Z,21.40
2018-06-09T23:24:21.842Z,21.40
2018-06-09T23:26:50.384Z,21.40
2018-06-09T23:29:19.360Z,21.30
2018-06-09T23:31:47.907Z,21.30
2018-06-09T23:34:16.532Z,21.30
2018-06-09T23:36:45.025Z,21.20
2018-06-09T23:39:13.499Z,21.20
2018-06-09T23:41:42.035Z,21.20
2018-06-09T23:44:10.565Z,21.20
2018-06-09T23:46:39.117Z,21.20
2018-06-09T23:49:07.599Z,21.10
2018-06-09T23:51:36.089Z,21.20
2018-06-09T23:54:04.602Z,21.20
2018-06-09T23:56:33.086Z,21.20
2018-06-09T23:59:01.617Z,21.20
